createdAt,value
2022-11-08T00:00:30.700Z,4
2022-11-08T00:01:31.685Z,4
2022-11-08T00:02:32.451Z,4
2022-11-08T00:03:33.150Z,4
2022-11-08T00:04:34.548Z,4
2022-11-08T00:05:35.997Z,4
2022-11-08T00:06:36.603Z,4
2022-11-08T00:07:37.212Z,4
2022-11-08T00:08:37.813Z,4
2022-11-08T00:09:38.460Z,4
2022-11-08T00:10:39.062Z,4
2022-11-08T00:11:39.666Z,4
2022-11-08T00:12:40.259Z,4
2022-11-08T00:13:40.867Z,4
2022-11-08T00:14:41.471Z,4
2022-11-08T00:15:42.921Z,4
2022-11-08T00:16:43.570Z,4
2022-11-08T00:17:44.187Z,4
2022-11-08T00:18:44.806Z,4
2022-11-08T00:19:45.473Z,4
2022-11-08T00:20:46.080Z,4
2022-11-08T00:21:46.682Z,4
2022-11-08T00:22:47.276Z,4
2022-11-08T00:23:47.873Z,4
2022-11-08T00:24:48.472Z,4
2022-11-08T00:25:49.076Z,4
2022-11-08T00:26:49.670Z,4
2022-11-08T00:27:50.263Z,4
2022-11-08T00:28:50.860Z,4
2022-11-08T00:29:51.461Z,4
2022-11-08T00:30:52.108Z,4
2022-11-08T00:31:53.553Z,4
2022-11-08T00:32:54.362Z,0
2022-11-08T00:33:54.958Z,0
2022-11-08T00:34:55.604Z,0
2022-11-08T00:35:56.198Z,0
2022-11-08T00:36:56.809Z,0
2022-11-08T00:37:57.459Z,0
2022-11-08T00:38:58.057Z,0
2022-11-08T00:39:58.663Z,0
2022-11-08T00:40:59.263Z,0
2022-11-08T00:41:59.863Z,0
2022-11-08T00:43:00.468Z,0
2022-11-08T00:44:01.069Z,0
2022-11-08T00:45:01.725Z,0
2022-11-08T00:46:02.322Z,0
2022-11-08T00:47:02.925Z,0
2022-11-08T00:48:03.572Z,0
2022-11-08T00:49:04.175Z,0
2022-11-08T00:50:04.780Z,0
2022-11-08T00:51:05.451Z,0
2022-11-08T00:52:06.045Z,0
2022-11-08T00:53:06.649Z,0
2022-11-08T00:54:07.253Z,0
2022-11-08T00:55:07.845Z,0
2022-11-08T00:56:08.444Z,0
2022-11-08T00:57:09.041Z,0
2022-11-08T00:58:09.635Z,0
2022-11-08T00:59:10.231Z,0
2022-11-08T01:00:10.827Z,0
2022-11-08T01:01:11.489Z,0
2022-11-08T01:02:12.147Z,0
2022-11-08T01:03:12.759Z,0
2022-11-08T01:04:13.361Z,0
2022-11-08T01:05:13.953Z,0
2022-11-08T01:06:14.550Z,0
2022-11-08T01:07:15.211Z,0
2022-11-08T01:08:16.310Z,0
2022-11-08T01:09:17.050Z,0
2022-11-08T01:10:17.649Z,0
2022-11-08T01:11:18.253Z,0
2022-11-08T01:12:18.854Z,0
2022-11-08T01:13:19.453Z,0
2022-11-08T01:14:20.057Z,0
2022-11-08T01:15:20.775Z,0
2022-11-08T01:16:21.370Z,0
2022-11-08T01:17:21.971Z,0
2022-11-08T01:18:22.573Z,0
2022-11-08T01:19:23.176Z,0
2022-11-08T01:20:23.776Z,0
2022-11-08T01:21:24.380Z,0
2022-11-08T01:22:24.983Z,0
2022-11-08T01:23:25.584Z,0
2022-11-08T01:24:26.190Z,0
2022-11-08T01:25:26.782Z,0
2022-11-08T01:26:27.389Z,0
2022-11-08T01:27:27.981Z,0
2022-11-08T01:28:28.580Z,0
2022-11-08T01:29:29.239Z,0
2022-11-08T01:30:29.839Z,0
2022-11-08T01:31:31.285Z,0
2022-11-08T01:32:31.880Z,0
2022-11-08T01:33:33.326Z,0
2022-11-08T01:34:33.922Z,0
2022-11-08T01:35:34.518Z,0
2022-11-08T01:36:35.114Z,0
2022-11-08T01:37:35.762Z,0
2022-11-08T01:38:36.369Z,0
2022-11-08T01:39:36.963Z,0
2022-11-08T01:40:37.560Z,0
2022-11-08T01:41:38.160Z,0
2022-11-08T01:42:38.751Z,0
2022-11-08T01:43:39.411Z,0
2022-11-08T01:44:40.008Z,0
2022-11-08T01:45:40.608Z,0
2022-11-08T01:46:41.209Z,0
2022-11-08T01:47:41.811Z,0
2022-11-08T01:48:42.412Z,0
2022-11-08T01:49:43.062Z,0
2022-11-08T01:50:43.666Z,0
2022-11-08T01:51:44.255Z,0
2022-11-08T01:52:44.860Z,0
2022-11-08T01:53:45.460Z,0
2022-11-08T01:54:46.062Z,0
2022-11-08T01:55:47.464Z,0
2022-11-08T01:56:48.066Z,0
2022-11-08T01:57:48.669Z,0
2022-11-08T01:58:49.268Z,0
2022-11-08T01:59:49.857Z,0
2022-11-08T02:00:50.491Z,0
2022-11-08T02:01:51.281Z,0
2022-11-08T02:02:51.998Z,0
2022-11-08T02:03:52.594Z,0
2022-11-08T02:04:53.188Z,0
2022-11-08T02:05:53.784Z,0
2022-11-08T02:06:54.382Z,0
2022-11-08T02:07:54.976Z,0
2022-11-08T02:08:55.574Z,0
2022-11-08T02:09:56.169Z,0
2022-11-08T02:10:56.765Z,0
2022-11-08T02:11:57.361Z,0
2022-11-08T02:13:00.532Z,0
2022-11-08T02:13:59.549Z,0
2022-11-08T02:15:00.147Z,0
2022-11-08T02:16:00.754Z,0
2022-11-08T02:17:01.358Z,0
2022-11-08T02:18:01.952Z,0
2022-11-08T02:19:02.556Z,0
2022-11-08T02:20:03.161Z,0
2022-11-08T02:21:03.760Z,0
2022-11-08T02:22:04.361Z,0
2022-11-08T02:23:04.960Z,0
2022-11-08T02:24:05.561Z,0
2022-11-08T02:25:06.162Z,0
2022-11-08T02:26:06.761Z,0
2022-11-08T02:27:07.362Z,0
2022-11-08T02:28:07.962Z,0
2022-11-08T02:29:08.565Z,0
2022-11-08T02:30:09.167Z,0
2022-11-08T02:31:09.769Z,0
2022-11-08T02:32:10.361Z,0
2022-11-08T02:33:10.977Z,0
2022-11-08T02:34:11.620Z,0
2022-11-08T02:35:12.223Z,0
2022-11-08T02:36:12.869Z,0
2022-11-08T02:37:13.472Z,0
2022-11-08T02:38:14.144Z,0
2022-11-08T02:39:14.807Z,0
2022-11-08T02:40:15.403Z,0
2022-11-08T02:41:16.001Z,0
2022-11-08T02:42:16.605Z,0
2022-11-08T02:43:17.198Z,0
2022-11-08T02:44:17.950Z,0
2022-11-08T02:45:18.546Z,0
2022-11-08T02:46:19.143Z,0
2022-11-08T02:47:19.792Z,0
2022-11-08T02:48:20.791Z,0
2022-11-08T02:49:21.879Z,0
2022-11-08T02:50:22.507Z,0
2022-11-08T02:51:23.091Z,0
2022-11-08T03:14:07.288Z,0
2022-11-08T03:15:07.934Z,0
2022-11-08T03:16:08.526Z,0
2022-11-08T03:17:09.184Z,0
2022-11-08T03:18:09.842Z,0
2022-11-08T03:19:10.434Z,0
2022-11-08T03:20:11.030Z,0
2022-11-08T03:21:11.625Z,0
2022-11-08T03:22:12.222Z,0
2022-11-08T03:23:12.817Z,0
2022-11-08T03:24:13.411Z,0
2022-11-08T03:25:14.007Z,0
2022-11-08T03:26:14.665Z,0
2022-11-08T03:27:15.270Z,0
2022-11-08T03:28:20.339Z,0
2022-11-08T03:29:17.440Z,0
2022-11-08T03:30:18.036Z,0
2022-11-08T03:31:18.631Z,0
2022-11-08T03:32:19.227Z,0
2022-11-08T03:33:19.821Z,0
2022-11-08T03:34:20.416Z,0
2022-11-08T03:35:21.012Z,0
2022-11-08T03:36:21.604Z,0
2022-11-08T03:37:22.200Z,0
2022-11-08T03:38:22.796Z,0
2022-11-08T03:39:23.392Z,0
2022-11-08T03:40:23.985Z,0
2022-11-08T03:41:24.582Z,0
2022-11-08T03:42:25.196Z,0
2022-11-08T03:43:25.790Z,0
2022-11-08T03:44:26.414Z,0
2022-11-08T03:45:27.038Z,0
2022-11-08T03:46:27.696Z,0
2022-11-08T03:47:28.342Z,0
2022-11-08T03:48:28.934Z,0
2022-11-08T03:49:29.531Z,0
2022-11-08T03:50:30.173Z,0
2022-11-08T03:51:30.817Z,0
2022-11-08T03:52:31.461Z,0
2022-11-08T03:53:32.056Z,0
2022-11-08T03:54:32.653Z,0
2022-11-08T03:55:33.249Z,0
2022-11-08T03:56:33.843Z,0
2022-11-08T03:57:34.435Z,0
2022-11-08T03:58:35.031Z,0
2022-11-08T03:59:35.625Z,0
2022-11-08T04:00:36.272Z,0
2022-11-08T04:01:37.070Z,0
2022-11-08T04:02:37.763Z,0
2022-11-08T04:03:38.393Z,0
2022-11-08T04:04:38.988Z,0
2022-11-08T04:05:39.589Z,0
2022-11-08T04:06:40.184Z,0
2022-11-08T04:07:40.779Z,0
2022-11-08T04:08:41.375Z,0
2022-11-08T04:09:41.970Z,0
2022-11-08T04:10:42.567Z,0
2022-11-08T04:11:43.156Z,0
2022-11-08T04:12:43.751Z,0
2022-11-08T04:13:44.347Z,0
2022-11-08T04:14:44.997Z,0
2022-11-08T04:15:45.592Z,0
2022-11-08T04:16:46.217Z,0
2022-11-08T04:17:46.806Z,0
2022-11-08T04:18:47.405Z,0
2022-11-08T04:19:47.999Z,0
2022-11-08T04:20:48.660Z,0
2022-11-08T04:21:49.315Z,0
2022-11-08T04:22:49.910Z,0
2022-11-08T04:23:50.557Z,0
2022-11-08T04:24:51.154Z,0
2022-11-08T04:25:51.749Z,0
2022-11-08T04:26:52.348Z,0
2022-11-08T04:27:52.940Z,0
2022-11-08T04:28:53.534Z,0
2022-11-08T04:29:54.130Z,0
2022-11-08T04:30:54.725Z,0
2022-11-08T04:31:55.321Z,0
2022-11-08T04:32:55.916Z,0
2022-11-08T04:33:56.509Z,0
2022-11-08T04:34:57.905Z,0
2022-11-08T04:35:58.502Z,0
2022-11-08T04:36:59.099Z,0
2022-11-08T04:37:59.692Z,0
2022-11-08T04:39:00.286Z,0
2022-11-08T04:40:00.880Z,0
2022-11-08T04:41:01.477Z,0
2022-11-08T04:42:02.722Z,0
2022-11-08T04:43:03.370Z,0
2022-11-08T04:44:03.965Z,0
2022-11-08T04:45:04.560Z,0
2022-11-08T04:46:05.161Z,0
2022-11-08T04:47:05.811Z,0
2022-11-08T04:48:06.412Z,0
2022-11-08T04:49:07.003Z,0
2022-11-08T04:50:07.596Z,0
2022-11-08T04:51:08.190Z,0
2022-11-08T04:52:08.785Z,0
2022-11-08T04:53:09.379Z,0
2022-11-08T04:54:09.975Z,0
2022-11-08T04:55:10.567Z,0
2022-11-08T04:56:11.211Z,0
2022-11-08T04:57:11.855Z,0
2022-11-08T04:58:12.448Z,0
2022-11-08T04:59:13.040Z,0
2022-11-08T05:00:13.636Z,0
2022-11-08T05:01:14.327Z,0
2022-11-08T05:02:15.048Z,0
2022-11-08T05:03:15.716Z,0
2022-11-08T05:04:16.308Z,0
2022-11-08T05:05:16.903Z,0
2022-11-08T05:06:17.648Z,0
2022-11-08T05:07:19.093Z,0
2022-11-08T05:08:20.063Z,0
2022-11-08T05:09:20.948Z,0
2022-11-08T05:10:21.542Z,0
2022-11-08T05:11:22.144Z,0
2022-11-08T05:12:22.733Z,0
2022-11-08T05:13:23.328Z,0
2022-11-08T05:14:23.922Z,0
2022-11-08T05:15:24.517Z,0
2022-11-08T05:16:25.111Z,0
2022-11-08T05:17:25.708Z,0
2022-11-08T05:18:26.304Z,0
2022-11-08T05:19:26.898Z,0
2022-11-08T05:20:27.492Z,0
2022-11-08T05:21:28.089Z,0
2022-11-08T05:22:28.747Z,0
2022-11-08T05:23:29.340Z,0
2022-11-08T05:24:29.934Z,0
2022-11-08T05:25:30.530Z,0
2022-11-08T05:26:31.126Z,0
2022-11-08T05:27:31.721Z,0
2022-11-08T05:28:32.315Z,0
2022-11-08T05:29:32.910Z,0
2022-11-08T05:30:33.509Z,0
2022-11-08T05:31:34.098Z,0
2022-11-08T05:32:34.693Z,0
2022-11-08T05:33:35.303Z,0
2022-11-08T05:34:35.885Z,0
2022-11-08T05:35:36.481Z,0
2022-11-08T05:36:37.073Z,0
2022-11-08T05:37:37.670Z,0
2022-11-08T05:38:38.330Z,0
2022-11-08T05:39:38.923Z,0
2022-11-08T05:40:39.517Z,0
2022-11-08T05:41:40.163Z,0
2022-11-08T05:42:40.758Z,0
2022-11-08T05:43:41.356Z,0
2022-11-08T05:44:41.949Z,0
2022-11-08T05:45:42.546Z,0
2022-11-08T05:46:43.141Z,0
2022-11-08T05:47:43.735Z,0
2022-11-08T05:48:44.332Z,0
2022-11-08T05:49:44.928Z,0
2022-11-08T05:50:45.523Z,0
2022-11-08T05:51:46.116Z,0
2022-11-08T05:52:46.712Z,0
2022-11-08T05:53:47.309Z,0
2022-11-08T05:54:47.903Z,0
2022-11-08T05:55:48.503Z,0
2022-11-08T05:56:49.094Z,0
2022-11-08T05:57:49.689Z,0
2022-11-08T05:58:50.286Z,0
2022-11-08T05:59:50.877Z,0
2022-11-08T06:00:51.473Z,0
2022-11-08T06:01:52.166Z,0
2022-11-08T06:02:52.889Z,0
2022-11-08T06:03:53.781Z,0
2022-11-08T06:04:54.524Z,0
2022-11-08T06:05:55.120Z,0
2022-11-08T06:06:55.716Z,0
2022-11-08T06:07:57.158Z,0
2022-11-08T06:08:58.552Z,0
2022-11-08T06:09:59.148Z,0
2022-11-08T06:10:59.740Z,0
2022-11-08T06:12:00.335Z,0
2022-11-08T06:13:01.184Z,0
2022-11-08T06:14:01.831Z,0
2022-11-08T06:15:02.643Z,0
2022-11-08T06:16:03.226Z,0
2022-11-08T06:17:03.818Z,0
2022-11-08T06:18:04.414Z,0
2022-11-08T06:19:05.055Z,0
2022-11-08T06:20:05.649Z,0
2022-11-08T06:21:06.245Z,0
2022-11-08T06:22:06.839Z,0
2022-11-08T06:23:07.432Z,0
2022-11-08T06:24:08.028Z,0
2022-11-08T06:25:08.668Z,0
2022-11-08T06:26:09.265Z,0
2022-11-08T06:27:09.862Z,0
2022-11-08T06:28:10.454Z,0
2022-11-08T06:29:11.048Z,0
2022-11-08T06:30:11.643Z,0
2022-11-08T06:31:12.372Z,0
2022-11-08T06:32:13.817Z,0
2022-11-08T06:33:14.448Z,0
2022-11-08T06:34:15.130Z,0
2022-11-08T06:35:15.772Z,0
2022-11-08T06:36:16.366Z,0
2022-11-08T06:37:16.958Z,0
2022-11-08T06:38:17.553Z,0
2022-11-08T06:39:18.150Z,0
2022-11-08T06:40:18.742Z,0
2022-11-08T06:41:19.387Z,0
2022-11-08T06:42:19.982Z,0
2022-11-08T06:43:20.856Z,0
2022-11-08T06:44:21.668Z,0
2022-11-08T06:45:22.260Z,0
2022-11-08T06:46:22.854Z,0
2022-11-08T06:47:23.446Z,0
2022-11-08T06:48:24.042Z,0
2022-11-08T06:49:24.638Z,0
2022-11-08T06:50:26.032Z,0
2022-11-08T06:51:27.620Z,0
2022-11-08T06:52:28.279Z,0
2022-11-08T06:53:28.873Z,0
2022-11-08T06:54:29.475Z,0
2022-11-08T06:55:30.068Z,0
2022-11-08T06:56:30.663Z,0
2022-11-08T06:57:31.321Z,0
2022-11-08T06:58:31.923Z,0
2022-11-08T06:59:32.518Z,0
2022-11-08T07:00:33.114Z,0
2022-11-08T07:01:33.858Z,0
2022-11-08T07:02:34.689Z,0
2022-11-08T07:03:35.307Z,0
2022-11-08T07:04:35.895Z,0
2022-11-08T07:05:36.704Z,0
2022-11-08T07:06:37.314Z,0
2022-11-08T07:07:37.910Z,0
2022-11-08T07:08:38.503Z,0
2022-11-08T07:09:39.098Z,0
2022-11-08T07:10:39.691Z,0
2022-11-08T07:11:40.337Z,0
2022-11-08T07:12:40.933Z,0
2022-11-08T07:13:41.532Z,0
2022-11-08T07:14:42.185Z,0
2022-11-08T07:15:42.779Z,0
2022-11-08T07:16:43.377Z,0
2022-11-08T07:17:43.974Z,0
2022-11-08T07:18:44.684Z,0
2022-11-08T07:19:45.311Z,0
2022-11-08T07:20:45.972Z,0
2022-11-08T07:21:46.565Z,0
2022-11-08T07:22:47.161Z,0
2022-11-08T07:23:47.754Z,4
2022-11-08T07:24:48.348Z,4
2022-11-08T07:25:48.944Z,4
2022-11-08T07:26:49.538Z,4
2022-11-08T07:27:50.134Z,4
2022-11-08T07:28:50.728Z,4
2022-11-08T07:29:51.322Z,4
2022-11-08T07:30:51.936Z,4
2022-11-08T07:31:52.552Z,4
2022-11-08T07:32:53.152Z,4
2022-11-08T07:33:53.753Z,4
2022-11-08T07:34:54.351Z,4
2022-11-08T07:35:55.146Z,0
2022-11-08T07:36:55.740Z,0
2022-11-08T07:37:56.337Z,0
2022-11-08T07:38:57.796Z,0
2022-11-08T07:39:58.518Z,0
2022-11-08T07:40:59.124Z,0
2022-11-08T07:41:59.904Z,0
2022-11-08T07:43:15.728Z,0
2022-11-08T07:44:02.084Z,0
2022-11-08T07:45:03.527Z,0
2022-11-08T07:46:04.125Z,0
2022-11-08T07:47:04.717Z,0
2022-11-08T07:48:10.647Z,0
2022-11-08T07:49:06.900Z,0
2022-11-08T07:50:08.346Z,0
2022-11-08T07:51:08.944Z,4
2022-11-08T07:52:09.537Z,4
2022-11-08T07:53:10.132Z,4
2022-11-08T07:54:10.728Z,4
2022-11-08T07:55:11.322Z,4
2022-11-08T07:56:11.919Z,4
2022-11-08T07:57:12.513Z,4
2022-11-08T07:58:13.175Z,4
2022-11-08T07:59:13.766Z,4
2022-11-08T08:00:14.364Z,4
2022-11-08T08:01:14.957Z,4
2022-11-08T08:02:16.586Z,4
2022-11-08T08:03:17.959Z,4
2022-11-08T08:04:18.898Z,4
2022-11-08T08:05:19.492Z,4
2022-11-08T08:06:20.088Z,4
2022-11-08T08:07:20.680Z,4
2022-11-08T08:08:21.277Z,4
2022-11-08T08:09:21.873Z,4
2022-11-08T08:10:22.467Z,4
2022-11-08T08:11:23.063Z,4
2022-11-08T08:12:23.658Z,4
2022-11-08T08:13:24.252Z,4
2022-11-08T08:14:24.847Z,4
2022-11-08T08:15:25.445Z,4
2022-11-08T08:16:26.034Z,4
2022-11-08T08:17:26.630Z,0
2022-11-08T08:18:27.230Z,0
2022-11-08T08:19:27.820Z,0
2022-11-08T08:20:28.477Z,0
2022-11-08T08:21:29.071Z,0
2022-11-08T08:22:29.714Z,0
2022-11-08T08:23:30.307Z,0
2022-11-08T08:24:30.904Z,0
2022-11-08T08:25:31.513Z,0
2022-11-08T08:26:32.100Z,0
2022-11-08T08:27:32.699Z,0
2022-11-08T08:28:33.290Z,0
2022-11-08T08:29:33.885Z,0
2022-11-08T08:30:34.480Z,0
2022-11-08T08:31:35.074Z,0
2022-11-08T08:32:35.780Z,0
2022-11-08T08:33:36.755Z,0
2022-11-08T08:34:37.583Z,0
2022-11-08T08:35:38.175Z,0
2022-11-08T08:36:38.771Z,0
2022-11-08T08:37:39.366Z,0
2022-11-08T08:38:44.287Z,0
2022-11-08T08:39:41.550Z,0
2022-11-08T08:40:42.148Z,0
2022-11-08T08:41:42.744Z,0
2022-11-08T08:42:43.339Z,0
2022-11-08T08:43:43.932Z,0
2022-11-08T08:44:44.581Z,0
2022-11-08T08:45:45.971Z,0
2022-11-08T08:46:46.618Z,0
2022-11-08T08:47:47.214Z,0
2022-11-08T08:48:47.861Z,0
2022-11-08T08:49:48.455Z,0
2022-11-08T08:50:49.051Z,0
2022-11-08T08:51:49.647Z,0
2022-11-08T08:52:50.241Z,0
2022-11-08T08:53:50.853Z,4
2022-11-08T08:54:51.490Z,0
2022-11-08T08:55:52.083Z,4
2022-11-08T08:56:52.691Z,0
2022-11-08T08:57:53.274Z,4
2022-11-08T09:01:58.687Z,4
2022-11-08T09:02:59.282Z,4
2022-11-08T09:03:59.940Z,4
2022-11-08T09:05:00.536Z,4
2022-11-08T09:06:01.986Z,4
2022-11-08T09:07:02.661Z,4
2022-11-08T09:08:03.286Z,4
2022-11-08T09:09:03.884Z,4
2022-11-08T09:10:04.474Z,4
2022-11-08T09:11:05.071Z,4
2022-11-08T09:12:08.038Z,4
2022-11-08T09:13:07.258Z,4
2022-11-08T09:14:07.852Z,4
2022-11-08T09:15:08.520Z,4
2022-11-08T09:16:09.168Z,4
2022-11-08T09:17:09.763Z,4
2022-11-08T09:18:10.399Z,8
2022-11-08T09:19:11.002Z,4
2022-11-08T09:20:11.596Z,4
2022-11-08T09:21:12.192Z,8
2022-11-08T09:22:12.870Z,4
2022-11-08T09:23:13.447Z,4
2022-11-08T09:24:14.035Z,4
2022-11-08T09:25:14.632Z,4
2022-11-08T09:26:15.293Z,4
2022-11-08T09:27:15.886Z,4
2022-11-08T09:28:16.505Z,4
2022-11-08T09:29:17.069Z,4
2022-11-08T09:30:17.714Z,4
2022-11-08T09:31:18.309Z,4
2022-11-08T09:32:24.845Z,4
2022-11-08T09:33:20.851Z,4
2022-11-08T09:34:21.840Z,4
2022-11-08T09:35:22.540Z,4
2022-11-08T09:36:23.234Z,4
2022-11-08T09:37:23.817Z,4
2022-11-08T09:38:24.409Z,4
2022-11-08T09:39:25.006Z,4
2022-11-08T09:40:25.602Z,4
2022-11-08T09:41:26.196Z,4
2022-11-08T09:42:26.789Z,4
2022-11-08T09:43:27.385Z,4
2022-11-08T09:44:27.977Z,4
2022-11-08T09:45:28.575Z,8
2022-11-08T09:46:30.021Z,4
2022-11-08T09:47:30.615Z,4
2022-11-08T09:48:31.210Z,4
2022-11-08T09:49:31.870Z,4
2022-11-08T09:50:32.448Z,4
2022-11-08T09:51:33.044Z,8
2022-11-08T09:52:33.641Z,4
2022-11-08T09:53:34.239Z,8
2022-11-08T09:54:34.832Z,8
2022-11-08T09:55:35.430Z,4
2022-11-08T09:56:36.022Z,4
2022-11-08T09:57:36.617Z,4
2022-11-08T09:58:37.213Z,4
2022-11-08T09:59:37.810Z,4
2022-11-08T10:00:38.405Z,4
2022-11-08T10:01:39.040Z,4
2022-11-08T10:02:39.713Z,4
2022-11-08T10:03:41.142Z,4
2022-11-08T10:04:41.792Z,4
2022-11-08T10:05:42.382Z,4
2022-11-08T10:06:43.041Z,8
2022-11-08T10:07:43.631Z,4
2022-11-08T10:08:45.075Z,8
2022-11-08T10:09:45.670Z,4
2022-11-08T10:10:46.268Z,8
2022-11-08T10:11:46.865Z,4
2022-11-08T10:12:47.522Z,4
2022-11-08T10:13:48.118Z,4
2022-11-08T10:14:53.724Z,4
2022-11-08T10:15:50.304Z,4
2022-11-08T10:16:50.899Z,4
2022-11-08T10:17:51.496Z,4
2022-11-08T10:18:52.090Z,4
2022-11-08T10:19:52.685Z,4
2022-11-08T10:20:53.280Z,4
2022-11-08T10:21:53.873Z,4
2022-11-08T10:22:54.468Z,4
2022-11-08T10:23:55.063Z,0
2022-11-08T10:24:55.655Z,4
2022-11-08T10:25:56.250Z,4
2022-11-08T10:26:56.844Z,4
2022-11-08T10:27:57.436Z,0
2022-11-08T10:28:58.029Z,4
2022-11-08T10:29:58.624Z,0
2022-11-08T10:30:59.223Z,4
2022-11-08T10:31:59.813Z,4
2022-11-08T10:33:00.408Z,4
2022-11-08T10:34:01.004Z,4
2022-11-08T10:35:01.602Z,4
2022-11-08T10:36:02.906Z,4
2022-11-08T10:37:03.699Z,4
2022-11-08T10:38:04.294Z,4
2022-11-08T10:39:04.891Z,8
2022-11-08T10:40:05.487Z,4
2022-11-08T10:41:06.142Z,4
2022-11-08T10:42:06.739Z,4
2022-11-08T10:43:09.505Z,4
2022-11-08T10:44:08.922Z,8
2022-11-08T10:45:09.517Z,8
2022-11-08T10:46:10.114Z,8
2022-11-08T10:47:10.712Z,8
2022-11-08T10:48:11.307Z,8
2022-11-08T10:49:11.959Z,8
2022-11-08T10:50:12.553Z,8
2022-11-08T10:51:13.144Z,8
2022-11-08T10:52:13.741Z,8
2022-11-08T10:53:14.389Z,4
2022-11-08T10:54:14.984Z,8
2022-11-08T10:55:15.578Z,4
2022-11-08T10:56:16.225Z,4
2022-11-08T10:57:16.820Z,4
2022-11-08T10:58:17.732Z,8
2022-11-08T10:59:18.513Z,4
2022-11-08T11:00:19.107Z,4
2022-11-08T11:01:19.776Z,4
2022-11-08T11:02:20.539Z,4
2022-11-08T11:03:21.139Z,8
2022-11-08T11:04:21.735Z,4
2022-11-08T11:05:22.328Z,8
2022-11-08T11:06:23.078Z,8
2022-11-08T11:07:23.664Z,4
2022-11-08T11:08:24.260Z,4
2022-11-08T11:09:24.857Z,8
2022-11-08T11:10:25.450Z,4
2022-11-08T11:11:26.044Z,4
2022-11-08T11:12:26.640Z,8
2022-11-08T11:14:27.830Z,4
2022-11-08T11:15:28.478Z,4
2022-11-08T11:16:29.074Z,4
2022-11-08T11:17:31.775Z,4
2022-11-08T11:18:30.332Z,4
2022-11-08T11:19:30.921Z,4
2022-11-08T11:20:31.574Z,4
2022-11-08T11:21:33.019Z,4
2022-11-08T11:22:33.615Z,4
2022-11-08T11:23:34.208Z,0
2022-11-08T11:24:34.804Z,4
2022-11-08T11:25:35.398Z,0
2022-11-08T11:26:35.994Z,4
2022-11-08T11:27:36.592Z,4
2022-11-08T11:28:37.187Z,4
2022-11-08T11:29:37.792Z,4
2022-11-08T11:30:38.385Z,4
2022-11-08T11:31:38.973Z,4
2022-11-08T11:32:39.568Z,4
2022-11-08T11:33:40.164Z,0
2022-11-08T11:34:40.759Z,4
2022-11-08T11:35:41.353Z,4
2022-11-08T11:36:41.949Z,0
2022-11-08T11:37:42.545Z,4
2022-11-08T11:38:43.138Z,4
2022-11-08T11:39:43.738Z,4
2022-11-08T11:40:44.331Z,0
2022-11-08T11:41:45.077Z,0
2022-11-08T11:42:46.903Z,0
2022-11-08T11:43:47.259Z,4
2022-11-08T11:44:47.856Z,4
2022-11-08T11:45:48.452Z,0
2022-11-08T11:46:49.048Z,0
2022-11-08T11:47:49.641Z,0
2022-11-08T11:48:50.237Z,0
2022-11-08T11:49:50.832Z,0
2022-11-08T11:50:51.512Z,4
2022-11-08T11:51:52.133Z,4
2022-11-08T12:23:45.316Z,12
2022-11-08T12:24:46.024Z,16
2022-11-08T12:25:46.669Z,20
2022-11-08T12:26:47.264Z,20
2022-11-08T12:27:47.920Z,20
2022-11-08T12:28:48.511Z,20
2022-11-08T12:29:49.153Z,20
2022-11-08T12:30:50.597Z,16
2022-11-08T12:31:51.195Z,12
2022-11-08T12:32:51.791Z,12
2022-11-08T12:33:57.611Z,8
2022-11-08T12:34:54.973Z,12
2022-11-08T12:35:55.617Z,16
2022-11-08T12:36:57.061Z,16
2022-11-08T12:37:57.658Z,20
2022-11-08T12:38:58.318Z,20
2022-11-08T12:39:58.917Z,20
2022-11-08T12:40:59.514Z,16
2022-11-08T12:42:00.168Z,12
2022-11-08T12:43:00.763Z,12
2022-11-08T12:44:01.361Z,12
2022-11-08T12:45:01.958Z,12
2022-11-08T12:46:02.556Z,12
2022-11-08T12:47:03.151Z,8
2022-11-08T12:48:03.807Z,8
2022-11-08T12:49:04.404Z,12
2022-11-08T12:50:05.061Z,12
2022-11-08T12:51:05.814Z,12
2022-11-08T12:52:06.404Z,16
2022-11-08T12:53:06.999Z,16
2022-11-08T12:54:07.640Z,16
2022-11-08T12:55:08.251Z,16
2022-11-08T12:56:08.846Z,20
2022-11-08T12:57:09.442Z,20
2022-11-08T12:58:10.041Z,20
2022-11-08T12:59:10.636Z,20
2022-11-08T13:00:11.320Z,28
2022-11-08T13:01:11.985Z,28
2022-11-08T13:02:12.584Z,24
2022-11-08T13:03:13.183Z,24
2022-11-08T13:04:13.779Z,32
2022-11-08T13:05:14.378Z,28
2022-11-08T13:06:15.040Z,28
2022-11-08T13:07:15.704Z,28
2022-11-08T13:08:16.718Z,24
2022-11-08T13:09:17.436Z,24
2022-11-08T13:10:18.033Z,20
2022-11-08T13:11:18.630Z,20
2022-11-08T13:12:19.225Z,16
2022-11-08T13:13:19.818Z,16
2022-11-08T13:14:20.420Z,16
2022-11-08T13:15:21.009Z,16
2022-11-08T13:16:21.607Z,16
2022-11-08T13:17:22.202Z,20
2022-11-08T13:18:22.797Z,24
2022-11-08T13:19:23.392Z,28
2022-11-08T13:20:23.988Z,24
2022-11-08T13:21:24.584Z,16
2022-11-08T13:22:25.179Z,16
2022-11-08T13:23:25.776Z,16
2022-11-08T13:25:27.962Z,16
2022-11-08T13:26:28.559Z,16
2022-11-08T13:27:29.156Z,16
2022-11-08T13:28:29.813Z,20
2022-11-08T13:29:30.409Z,24
2022-11-08T13:30:31.011Z,24
2022-11-08T13:31:31.604Z,28
2022-11-08T13:32:32.264Z,28
2022-11-08T13:33:32.859Z,36
2022-11-08T13:34:33.506Z,36
2022-11-08T13:35:34.105Z,32
2022-11-08T13:36:34.751Z,20
2022-11-08T13:37:35.405Z,16
2022-11-08T13:38:36.155Z,16
2022-11-08T13:39:36.792Z,16
2022-11-08T13:40:37.405Z,16
2022-11-08T13:41:38.800Z,20
2022-11-08T13:42:39.405Z,16
2022-11-08T13:43:40.041Z,16
2022-11-08T13:44:40.641Z,16
2022-11-08T13:45:41.239Z,16
2022-11-08T13:46:41.903Z,20
2022-11-08T13:47:42.564Z,16
2022-11-08T13:48:43.159Z,24
2022-11-08T13:49:43.752Z,28
2022-11-08T13:50:44.353Z,24
2022-11-08T13:51:45.048Z,28
2022-11-08T13:52:45.654Z,24
2022-11-08T13:53:46.249Z,28
2022-11-08T13:54:46.901Z,24
2022-11-08T13:55:47.493Z,20
2022-11-08T13:56:48.090Z,20
2022-11-08T13:57:48.686Z,28
2022-11-08T13:58:49.282Z,20
2022-11-08T13:59:49.882Z,20
2022-11-08T14:00:50.565Z,20
2022-11-08T14:01:51.234Z,20
2022-11-08T14:02:51.835Z,24
2022-11-08T14:03:52.429Z,36
2022-11-08T14:04:53.024Z,60
2022-11-08T14:05:53.622Z,60
2022-11-08T14:06:54.255Z,56
2022-11-08T14:07:54.863Z,68
2022-11-08T14:08:55.455Z,64
2022-11-08T14:09:56.057Z,52
2022-11-08T14:10:56.645Z,60
2022-11-08T14:11:57.239Z,64
2022-11-08T14:12:57.837Z,68
2022-11-08T14:13:58.433Z,68
2022-11-08T14:14:59.029Z,68
2022-11-08T14:15:59.621Z,60
2022-11-08T14:17:00.216Z,72
2022-11-08T14:18:00.815Z,72
2022-11-08T14:19:01.472Z,68
2022-11-08T14:20:02.066Z,72
2022-11-08T14:21:02.663Z,64
2022-11-08T14:22:03.259Z,68
2022-11-08T14:23:03.875Z,64
2022-11-08T14:24:04.460Z,64
2022-11-08T14:25:05.114Z,64
2022-11-08T14:26:05.710Z,64
2022-11-08T14:27:06.319Z,60
2022-11-08T14:28:06.913Z,60
2022-11-08T14:29:07.504Z,32
2022-11-08T14:30:08.164Z,44
2022-11-08T14:31:08.761Z,32
2022-11-08T15:53:20.293Z,24
2022-11-08T15:54:21.040Z,24
2022-11-08T15:55:21.886Z,16
2022-11-08T15:56:23.331Z,20
2022-11-08T15:57:23.932Z,24
2022-11-08T15:58:24.525Z,28
2022-11-08T15:59:25.172Z,28
2022-11-08T16:00:25.765Z,32
2022-11-08T16:01:26.501Z,32
2022-11-08T16:02:27.088Z,28
2022-11-08T16:03:27.686Z,20
2022-11-08T16:04:28.284Z,20
2022-11-08T16:05:28.878Z,20
2022-11-08T16:06:29.537Z,24
2022-11-08T16:07:30.112Z,20
2022-11-08T16:08:30.709Z,24
2022-11-08T16:09:31.307Z,20
2022-11-08T16:10:31.918Z,20
2022-11-08T16:11:32.496Z,12
2022-11-08T16:12:33.092Z,12
2022-11-08T16:13:34.521Z,12
2022-11-08T16:14:35.086Z,12
2022-11-08T16:15:35.683Z,8
2022-11-08T16:16:36.276Z,8
2022-11-08T16:17:36.873Z,8
2022-11-08T16:18:37.469Z,8
2022-11-08T16:19:38.067Z,8
2022-11-08T16:20:38.661Z,8
2022-11-08T16:21:39.258Z,8
2022-11-08T16:22:39.855Z,12
2022-11-08T16:23:40.449Z,8
2022-11-08T16:24:41.045Z,8
2022-11-08T16:25:41.643Z,8
2022-11-08T16:26:42.235Z,8
2022-11-08T16:27:42.831Z,4
2022-11-08T16:28:43.489Z,4
2022-11-08T16:29:44.085Z,4
2022-11-08T16:30:44.680Z,4
2022-11-08T16:31:45.277Z,4
2022-11-08T16:32:45.870Z,4
2022-11-08T16:33:46.465Z,8
2022-11-08T16:34:47.061Z,8
2022-11-08T16:35:47.654Z,8
2022-11-08T16:36:48.249Z,8
2022-11-08T16:37:48.848Z,8
2022-11-08T16:38:49.439Z,8
2022-11-08T16:39:50.097Z,12
2022-11-08T16:40:50.696Z,12
2022-11-08T16:41:51.289Z,12
2022-11-08T16:42:51.882Z,12
2022-11-08T16:43:52.766Z,12
2022-11-08T16:44:53.364Z,8
2022-11-08T16:46:09.144Z,8
2022-11-08T16:46:55.553Z,8
2022-11-08T16:47:56.146Z,4
2022-11-08T16:48:56.740Z,4
2022-11-08T16:49:57.391Z,4
2022-11-08T16:50:57.986Z,4
2022-11-08T16:51:58.578Z,4
2022-11-08T16:52:59.174Z,4
2022-11-08T16:53:59.781Z,4
2022-11-08T16:55:00.426Z,0
2022-11-08T16:56:01.021Z,0
2022-11-08T16:57:28.630Z,4
2022-11-08T16:58:03.998Z,4
2022-11-08T16:59:04.593Z,4
2022-11-08T17:00:05.371Z,4
2022-11-08T17:01:10.237Z,4
2022-11-08T17:02:07.559Z,0
2022-11-08T17:03:08.325Z,0
2022-11-08T17:04:08.918Z,0
2022-11-08T17:05:09.510Z,0
2022-11-08T17:06:10.108Z,4
2022-11-08T17:07:14.188Z,0
2022-11-08T17:08:12.451Z,0
2022-11-08T17:09:13.045Z,0
2022-11-08T17:10:13.640Z,0